createdAt,value
2019-01-17T00:01:56.321Z,6.69
2019-01-17T00:04:42.582Z,6.54
2019-01-17T00:07:13.963Z,6.32
2019-01-17T00:09:45.331Z,6.22
2019-01-17T00:12:28.765Z,6.19
2019-01-17T00:15:00.189Z,6.18
2019-01-17T00:17:34.386Z,6.21
2019-01-17T00:20:16.261Z,6.03
2019-01-17T00:23:03.423Z,6.12
2019-01-17T00:25:43.647Z,6.01
2019-01-17T00:28:26.769Z,6.08
2019-01-17T00:31:01.145Z,6.14
2019-01-17T00:33:44.351Z,6.18
2019-01-17T00:36:31.863Z,6.31
2019-01-17T00:39:19.334Z,6.15
2019-01-17T00:41:59.538Z,6.25
2019-01-17T00:44:39.824Z,6.28
2019-01-17T00:47:11.161Z,6.32
2019-01-17T00:49:57.614Z,6.52
2019-01-17T00:52:31.803Z,6.28
2019-01-17T00:55:03.144Z,6.37
2019-01-17T00:57:49.595Z,6.39
2019-01-17T01:00:33.019Z,6.20
2019-01-17T01:03:16.262Z,6.28
2019-01-17T01:05:56.667Z,6.34
2019-01-17T01:08:30.631Z,6.23
2019-01-17T01:11:11.092Z,6.36
2019-01-17T01:13:57.603Z,6.39
2019-01-17T01:16:31.567Z,6.58
2019-01-17T01:19:04.167Z,6.66
2019-01-17T01:21:42.350Z,6.55
2019-01-17T01:24:19.314Z,6.52
2019-01-17T01:26:50.780Z,6.73
2019-01-17T01:29:35.191Z,6.53
2019-01-17T01:32:06.539Z,6.61
2019-01-17T01:34:55.805Z,6.52
2019-01-17T01:37:33.100Z,6.57
2019-01-17T01:40:20.370Z,6.62
2019-01-17T01:42:54.565Z,6.74
2019-01-17T01:45:25.934Z,6.63
2019-01-17T01:48:09.539Z,6.61
2019-01-17T01:50:41.599Z,6.70
2019-01-17T01:53:11.610Z,6.54
2019-01-17T01:55:41.414Z,6.69
2019-01-17T01:58:11.202Z,6.74
2019-01-17T02:00:41.027Z,6.78
2019-01-17T02:03:10.911Z,6.62
2019-01-17T02:05:40.811Z,6.69
2019-01-17T02:08:10.607Z,6.60
2019-01-17T02:10:40.402Z,6.57
2019-01-17T02:13:10.179Z,6.44
2019-01-17T02:15:39.964Z,6.50
2019-01-17T02:18:10.794Z,6.62
2019-01-17T02:20:40.946Z,6.49
2019-01-17T02:23:10.714Z,6.36
2019-01-17T02:25:40.504Z,6.21
2019-01-17T02:28:10.285Z,6.45
2019-01-17T02:30:40.077Z,6.33
2019-01-17T02:33:09.896Z,6.29
2019-01-17T02:35:44.863Z,6.22
2019-01-17T02:38:14.665Z,6.39
2019-01-17T02:40:44.424Z,6.23
2019-01-17T02:43:14.226Z,6.31
2019-01-17T02:45:44.128Z,6.19
2019-01-17T02:48:13.899Z,6.12
2019-01-17T02:50:43.754Z,6.11
2019-01-17T02:53:13.518Z,6.22
2019-01-17T02:55:43.304Z,6.02
2019-01-17T02:58:13.101Z,6.13
2019-01-17T03:00:42.876Z,6.09
2019-01-17T03:03:12.635Z,6.06
2019-01-17T03:05:42.456Z,6.24
2019-01-17T03:08:14.350Z,6.14
2019-01-17T03:10:44.265Z,6.01
2019-01-17T03:13:14.036Z,6.01
2019-01-17T03:15:43.840Z,6.05
2019-01-17T03:18:13.651Z,6.12
2019-01-17T03:20:43.435Z,6.01
2019-01-17T03:23:13.435Z,5.97
2019-01-17T03:25:43.204Z,5.91
2019-01-17T03:28:12.981Z,5.90
2019-01-17T03:30:42.759Z,5.76
2019-01-17T03:33:12.531Z,5.80
2019-01-17T03:35:42.334Z,6.06
2019-01-17T03:38:12.124Z,5.96
2019-01-17T03:40:41.903Z,6.10
2019-01-17T03:43:11.660Z,6.03
2019-01-17T03:45:41.447Z,6.02
2019-01-17T03:48:11.250Z,6.00
2019-01-17T03:50:41.164Z,6.29
2019-01-17T03:53:11.005Z,6.21
2019-01-17T03:55:40.786Z,6.12
2019-01-17T03:58:10.628Z,6.13
2019-01-17T04:00:40.395Z,6.27
2019-01-17T04:03:10.176Z,6.19
2019-01-17T04:05:39.982Z,6.15
2019-01-17T04:08:09.806Z,6.13
2019-01-17T04:10:39.581Z,6.15
2019-01-17T04:13:09.452Z,6.11
2019-01-17T04:15:39.550Z,6.34
2019-01-17T04:18:09.371Z,6.35
2019-01-17T04:20:39.155Z,6.43
2019-01-17T04:23:08.949Z,6.39
2019-01-17T04:25:38.698Z,6.22
2019-01-17T04:28:08.499Z,6.15
2019-01-17T04:30:38.313Z,6.28
2019-01-17T04:33:08.066Z,6.23
2019-01-17T04:35:37.859Z,6.22
2019-01-17T04:38:07.691Z,6.13
2019-01-17T04:40:37.482Z,6.28
2019-01-17T04:43:07.277Z,6.41
2019-01-17T04:45:37.171Z,6.32
2019-01-17T04:48:06.993Z,6.26
2019-01-17T04:50:37.064Z,6.12
2019-01-17T04:53:06.913Z,6.35
2019-01-17T04:55:36.678Z,6.42
2019-01-17T04:58:06.470Z,6.25
2019-01-17T05:00:36.217Z,6.18
2019-01-17T05:03:06.038Z,6.09
2019-01-17T05:05:35.806Z,6.17
2019-01-17T05:08:05.613Z,6.03
2019-01-17T05:10:35.784Z,6.04
2019-01-17T05:13:05.574Z,6.03
2019-01-17T05:15:35.370Z,6.08
2019-01-17T05:18:05.128Z,6.11
2019-01-17T05:20:34.891Z,6.00
2019-01-17T05:23:04.706Z,6.01
2019-01-17T05:25:34.814Z,6.09
2019-01-17T05:28:04.891Z,6.00
2019-01-17T05:30:34.745Z,6.15
2019-01-17T05:33:04.558Z,6.11
2019-01-17T05:35:36.374Z,6.04
2019-01-17T05:38:06.133Z,6.22
2019-01-17T05:40:35.922Z,5.98
2019-01-17T05:43:06.034Z,6.18
2019-01-17T05:45:36.848Z,6.09
2019-01-17T05:48:06.820Z,6.07
2019-01-17T05:50:36.653Z,6.01
2019-01-17T05:53:07.383Z,6.13
2019-01-17T05:55:37.875Z,6.01
2019-01-17T05:58:07.685Z,5.91
2019-01-17T06:00:37.459Z,6.11
2019-01-17T06:03:07.270Z,6.21
2019-01-17T06:05:37.094Z,6.00
2019-01-17T06:08:06.857Z,5.98
2019-01-17T06:10:36.680Z,6.10
2019-01-17T06:13:07.247Z,6.16
2019-01-17T06:15:37.611Z,6.02
2019-01-17T06:18:07.370Z,6.00
2019-01-17T06:20:37.159Z,5.92
2019-01-17T06:23:06.959Z,5.96
2019-01-17T06:25:36.716Z,5.88
2019-01-17T06:28:06.551Z,5.96
2019-01-17T06:30:36.319Z,5.88
2019-01-17T06:33:06.233Z,5.81
2019-01-17T06:35:36.040Z,5.76
2019-01-17T06:38:05.870Z,5.83
2019-01-17T06:40:35.645Z,5.72
2019-01-17T06:43:05.421Z,5.63
2019-01-17T06:45:35.207Z,6.01
2019-01-17T06:48:05.369Z,5.97
2019-01-17T06:50:35.162Z,5.85
2019-01-17T06:53:05.087Z,5.74
2019-01-17T06:55:34.854Z,5.69
2019-01-17T06:58:04.788Z,5.60
2019-01-17T07:00:35.590Z,5.58
2019-01-17T07:03:05.639Z,5.67
2019-01-17T07:05:36.498Z,5.62
2019-01-17T07:08:06.273Z,5.79
2019-01-17T07:10:36.085Z,5.77
2019-01-17T07:13:05.846Z,5.80
2019-01-17T07:15:35.646Z,5.79
2019-01-17T07:18:06.326Z,5.75
2019-01-17T07:20:36.150Z,6.04
2019-01-17T07:23:07.944Z,5.88
2019-01-17T07:25:41.199Z,5.88
2019-01-17T07:28:09.297Z,5.74
2019-01-17T07:30:39.085Z,5.62
2019-01-17T07:33:08.866Z,5.84
2019-01-17T07:35:38.647Z,5.84
2019-01-17T07:38:08.396Z,5.72
2019-01-17T07:40:38.300Z,5.73
2019-01-17T07:43:08.055Z,5.58
2019-01-17T07:45:37.817Z,5.39
2019-01-17T07:48:07.621Z,5.42
2019-01-17T07:50:37.412Z,5.47
2019-01-17T07:53:07.596Z,5.27
2019-01-17T07:55:37.356Z,5.48
2019-01-17T07:58:07.135Z,5.51
2019-01-17T08:00:36.917Z,5.46
2019-01-17T08:03:06.803Z,5.50
2019-01-17T08:05:36.588Z,5.46
2019-01-17T08:08:06.393Z,5.54
2019-01-17T08:10:36.212Z,5.73
2019-01-17T08:13:06.485Z,5.78
2019-01-17T08:15:37.238Z,5.95
2019-01-17T08:18:07.046Z,6.02
2019-01-17T08:20:36.853Z,5.92
2019-01-17T08:23:06.759Z,5.83
2019-01-17T08:25:36.519Z,6.05
2019-01-17T08:28:06.294Z,6.11
2019-01-17T08:30:36.086Z,6.09
2019-01-17T08:33:05.870Z,6.24
2019-01-17T08:35:35.619Z,6.46
2019-01-17T08:38:05.819Z,6.31
2019-01-17T08:40:35.826Z,6.40
2019-01-17T08:43:05.631Z,6.38
2019-01-17T08:45:35.397Z,6.53
2019-01-17T08:48:05.796Z,6.40
2019-01-17T08:50:35.765Z,6.44
2019-01-17T08:53:05.534Z,6.61
2019-01-17T08:55:35.331Z,6.77
2019-01-17T08:58:05.297Z,6.61
2019-01-17T09:00:35.180Z,6.62
2019-01-17T09:03:04.986Z,6.71
2019-01-17T09:05:34.736Z,6.90
2019-01-17T09:08:04.531Z,6.80
2019-01-17T09:10:34.322Z,6.66
2019-01-17T09:13:04.528Z,6.70
2019-01-17T09:15:34.703Z,6.66
2019-01-17T09:18:04.931Z,6.54
2019-01-17T09:20:34.719Z,6.71
2019-01-17T09:23:04.610Z,6.91
2019-01-17T09:25:34.492Z,7.05
2019-01-17T09:28:04.395Z,7.21
2019-01-17T09:30:34.256Z,7.32
2019-01-17T09:33:04.018Z,7.48
2019-01-17T09:35:33.824Z,7.40
2019-01-17T09:38:03.719Z,7.49
2019-01-17T09:40:33.500Z,7.30
2019-01-17T09:43:03.283Z,7.54
2019-01-17T09:45:33.493Z,7.47
2019-01-17T09:48:03.822Z,7.45
2019-01-17T09:50:33.599Z,7.52
2019-01-17T09:53:03.772Z,7.31
2019-01-17T09:55:33.540Z,7.21
2019-01-17T09:58:03.343Z,7.13
2019-01-17T10:00:33.127Z,7.16
2019-01-17T10:03:02.875Z,7.17
2019-01-17T10:05:32.681Z,7.13
2019-01-17T10:08:02.493Z,7.23
2019-01-17T10:10:32.304Z,7.08
2019-01-17T10:13:02.115Z,7.13
2019-01-17T10:15:56.046Z,7.07
2019-01-17T10:18:50.232Z,7.07
2019-01-17T10:21:36.668Z,7.08
2019-01-17T10:24:19.980Z,7.15
2019-01-17T10:27:12.398Z,7.34
2019-01-17T10:30:12.498Z,7.20
2019-01-17T10:33:17.278Z,7.24
2019-01-17T10:35:51.548Z,7.21
2019-01-17T10:38:31.463Z,7.25
2019-01-17T10:41:38.401Z,7.20
2019-01-17T10:44:24.157Z,7.21
2019-01-17T10:47:34.866Z,7.22
2019-01-17T10:50:36.412Z,7.18
2019-01-17T10:53:40.884Z,7.38
2019-01-17T10:56:27.937Z,7.06
2019-01-17T10:59:17.519Z,6.82
2019-01-17T11:02:23.676Z,6.65
2019-01-17T11:05:22.742Z,6.64
2019-01-17T11:08:11.633Z,6.44
2019-01-17T11:11:00.953Z,6.40
2019-01-17T11:13:40.722Z,6.51
2019-01-17T11:16:39.344Z,6.36
2019-01-17T11:19:31.822Z,6.26
2019-01-17T11:22:28.158Z,6.37
2019-01-17T11:25:14.238Z,6.31
2019-01-17T11:28:00.123Z,6.14
2019-01-17T11:30:49.536Z,6.08
2019-01-17T11:33:32.882Z,6.12
2019-01-17T11:36:25.357Z,6.25
2019-01-17T11:39:23.848Z,6.34
2019-01-17T11:42:16.110Z,6.51
2019-01-17T11:45:02.524Z,6.50
2019-01-17T11:47:57.555Z,6.49
2019-01-17T11:50:37.674Z,6.51
2019-01-17T11:53:21.110Z,6.42
2019-01-17T11:56:01.190Z,6.57
2019-01-17T11:59:00.045Z,6.51
2019-01-17T12:02:01.820Z,6.48
2019-01-17T12:04:33.757Z,6.53
2019-01-17T12:07:08.416Z,6.42
2019-01-17T12:09:38.294Z,6.43
2019-01-17T12:12:08.168Z,6.39
2019-01-17T12:14:37.961Z,6.35
2019-01-17T12:17:07.754Z,6.24
2019-01-17T12:19:37.572Z,6.32
2019-01-17T12:22:07.374Z,6.27
2019-01-17T12:24:37.170Z,5.90
2019-01-17T12:27:06.945Z,5.42
2019-01-17T12:29:36.745Z,5.14
2019-01-17T12:32:06.499Z,5.01
2019-01-17T12:34:36.416Z,4.66
2019-01-17T12:37:06.674Z,4.60
2019-01-17T12:39:36.432Z,4.66
2019-01-17T12:42:06.452Z,4.73
2019-01-17T12:44:36.264Z,4.88
2019-01-17T12:47:06.026Z,4.75
2019-01-17T12:49:35.937Z,4.79
2019-01-17T12:52:05.723Z,4.84
2019-01-17T12:54:35.478Z,4.95
2019-01-17T12:57:05.263Z,5.00
2019-01-17T12:59:35.054Z,5.03
2019-01-17T13:02:04.871Z,5.05
2019-01-17T13:04:34.668Z,5.18
2019-01-17T13:07:04.449Z,5.14
2019-01-17T13:09:34.589Z,5.04
2019-01-17T13:12:05.353Z,4.94
2019-01-17T13:14:35.147Z,4.92
2019-01-17T13:17:04.916Z,4.98
2019-01-17T13:19:34.711Z,4.94
2019-01-17T13:22:04.591Z,4.98
2019-01-17T13:24:34.478Z,4.96
2019-01-17T13:27:05.670Z,5.05
2019-01-17T13:29:35.459Z,5.02
2019-01-17T13:32:05.350Z,5.01
2019-01-17T13:34:35.135Z,4.97
2019-01-17T13:37:04.900Z,5.03
2019-01-17T13:39:34.711Z,5.09
2019-01-17T13:42:04.483Z,5.03
2019-01-17T13:44:34.285Z,5.11
2019-01-17T13:47:04.059Z,5.11
2019-01-17T13:49:33.862Z,5.25
2019-01-17T13:52:03.647Z,5.18
2019-01-17T13:54:33.460Z,5.37
2019-01-17T13:57:07.504Z,5.40
2019-01-17T13:59:35.767Z,5.44
2019-01-17T14:02:05.711Z,5.44
2019-01-17T14:04:35.534Z,5.32
2019-01-17T14:07:05.548Z,5.27
2019-01-17T14:09:35.317Z,5.41
2019-01-17T14:12:05.110Z,5.51
2019-01-17T14:14:34.912Z,5.37
2019-01-17T14:17:04.705Z,5.52
2019-01-17T14:19:34.513Z,5.42
2019-01-17T14:22:04.312Z,5.35
2019-01-17T14:24:34.075Z,5.31
2019-01-17T14:27:03.860Z,5.26
2019-01-17T14:29:33.667Z,5.20
2019-01-17T14:32:03.996Z,5.25
2019-01-17T14:34:33.795Z,5.20
2019-01-17T14:37:03.584Z,5.16
2019-01-17T14:39:33.401Z,5.10
2019-01-17T14:42:03.173Z,5.23
2019-01-17T14:44:32.925Z,5.09
2019-01-17T14:47:02.751Z,5.07
2019-01-17T14:49:32.528Z,4.90
2019-01-17T14:52:02.330Z,4.90
2019-01-17T14:54:32.212Z,4.93
2019-01-17T14:57:02.008Z,4.76
2019-01-17T14:59:31.833Z,4.84
2019-01-17T15:02:01.617Z,4.85
2019-01-17T15:04:31.420Z,4.90
2019-01-17T15:07:01.207Z,4.87
2019-01-17T15:09:30.992Z,4.94
2019-01-17T15:12:01.231Z,4.90
2019-01-17T15:14:31.010Z,5.04
2019-01-17T15:17:00.817Z,4.98
2019-01-17T15:19:30.910Z,4.96
2019-01-17T15:22:00.708Z,4.94
2019-01-17T15:24:30.474Z,4.86
2019-01-17T15:27:00.242Z,4.89
2019-01-17T15:29:30.068Z,4.91
2019-01-17T15:32:00.768Z,4.84
2019-01-17T15:34:30.558Z,4.77
2019-01-17T15:37:00.340Z,4.61
2019-01-17T15:39:30.129Z,4.56
2019-01-17T15:41:59.939Z,4.65
2019-01-17T15:44:29.698Z,4.55
2019-01-17T15:46:59.464Z,4.36
2019-01-17T15:49:29.301Z,4.43
2019-01-17T15:51:59.149Z,4.27
2019-01-17T15:54:28.868Z,4.31
2019-01-17T15:56:58.678Z,4.27
2019-01-17T15:59:28.449Z,4.30
2019-01-17T16:01:58.338Z,4.35
2019-01-17T16:04:28.136Z,4.27
2019-01-17T16:06:57.893Z,4.27
2019-01-17T16:09:27.716Z,4.13
2019-01-17T16:11:57.943Z,4.14
2019-01-17T16:14:27.696Z,4.10
2019-01-17T16:16:57.475Z,4.14
2019-01-17T16:19:27.292Z,4.08
2019-01-17T16:21:57.076Z,4.21
2019-01-17T16:24:26.848Z,4.14
2019-01-17T16:26:56.650Z,4.11
2019-01-17T16:29:26.450Z,4.17
2019-01-17T16:31:56.242Z,4.06
2019-01-17T16:34:26.055Z,4.16
2019-01-17T16:36:56.042Z,4.13
2019-01-17T16:39:25.969Z,4.11
2019-01-17T16:41:55.760Z,4.05
2019-01-17T16:44:25.561Z,3.96
2019-01-17T16:46:55.330Z,3.98
2019-01-17T16:49:25.118Z,3.94
2019-01-17T16:51:54.996Z,3.81
2019-01-17T16:54:24.796Z,3.63
2019-01-17T16:56:54.619Z,3.67
2019-01-17T16:59:24.498Z,3.60
2019-01-17T17:01:54.291Z,3.66
2019-01-17T17:04:24.085Z,3.66
2019-01-17T17:06:53.878Z,3.55
2019-01-17T17:09:23.701Z,3.59
2019-01-17T17:11:53.498Z,3.50
2019-01-17T17:14:23.343Z,3.53
2019-01-17T17:16:53.120Z,3.61
2019-01-17T17:19:22.901Z,3.76
2019-01-17T17:21:52.688Z,3.78
2019-01-17T17:24:22.507Z,3.80
2019-01-17T17:26:52.368Z,3.87
2019-01-17T17:29:22.169Z,3.66
2019-01-17T17:31:52.004Z,3.76
2019-01-17T17:34:22.670Z,3.74
2019-01-17T17:36:52.504Z,3.82
2019-01-17T17:39:22.295Z,3.96
2019-01-17T17:41:52.094Z,3.89
2019-01-17T17:44:22.207Z,3.75
2019-01-17T17:46:51.997Z,3.84
2019-01-17T17:49:21.876Z,3.81
2019-01-17T17:51:52.584Z,3.76
2019-01-17T17:54:22.399Z,3.52
2019-01-17T17:56:52.237Z,3.36
2019-01-17T17:59:22.167Z,3.14
2019-01-17T18:01:53.270Z,2.93
2019-01-17T18:04:23.089Z,3.02
2019-01-17T18:06:52.974Z,3.07
2019-01-17T18:09:23.764Z,3.10
2019-01-17T18:11:53.562Z,3.17
2019-01-17T18:14:23.381Z,3.25
2019-01-17T18:16:53.163Z,3.14
2019-01-17T18:19:22.950Z,3.29
2019-01-17T18:21:52.733Z,3.15
2019-01-17T18:24:23.593Z,3.24
2019-01-17T18:26:53.342Z,3.29
2019-01-17T18:29:23.206Z,3.35
2019-01-17T18:31:53.042Z,3.26
2019-01-17T18:34:22.885Z,3.41
2019-01-17T18:36:52.646Z,3.19
2019-01-17T18:39:22.473Z,3.30
2019-01-17T18:41:52.251Z,3.08
2019-01-17T18:44:22.127Z,3.05
2019-01-17T18:46:51.996Z,3.03
2019-01-17T18:49:21.838Z,3.08
2019-01-17T18:51:51.607Z,2.79
2019-01-17T18:54:21.390Z,2.92
2019-01-17T18:56:51.230Z,2.79
2019-01-17T18:59:21.023Z,2.53
2019-01-17T19:01:50.812Z,2.37
2019-01-17T19:04:20.620Z,2.20
2019-01-17T19:06:50.444Z,2.05
2019-01-17T19:09:20.231Z,1.86
2019-01-17T19:11:50.078Z,1.91
2019-01-17T19:14:19.862Z,1.69
2019-01-17T19:16:49.668Z,1.97
2019-01-17T19:19:19.483Z,1.89
2019-01-17T19:21:49.329Z,2.09
2019-01-17T19:24:19.108Z,2.08
2019-01-17T19:26:48.916Z,2.04
2019-01-17T19:29:18.900Z,1.95
2019-01-17T19:31:48.713Z,2.05
2019-01-17T19:34:18.561Z,2.26
2019-01-17T19:36:48.365Z,2.22
2019-01-17T19:39:18.204Z,2.17
2019-01-17T19:41:48.026Z,2.29
2019-01-17T19:44:18.162Z,2.26
2019-01-17T19:46:47.906Z,2.26
2019-01-17T19:49:17.724Z,2.19
2019-01-17T19:51:47.526Z,2.08
2019-01-17T19:54:17.331Z,2.12
2019-01-17T19:56:47.106Z,2.17
2019-01-17T19:59:16.939Z,2.15
2019-01-17T20:01:46.743Z,2.26
2019-01-17T20:04:16.557Z,2.36
2019-01-17T20:06:46.478Z,2.24
2019-01-17T20:09:16.407Z,2.23
2019-01-17T20:11:46.213Z,2.15
2019-01-17T20:14:16.017Z,2.01
2019-01-17T20:16:45.838Z,2.06
2019-01-17T20:19:15.683Z,2.10
2019-01-17T20:21:45.479Z,2.11
2019-01-17T20:24:15.262Z,2.22
2019-01-17T20:26:45.384Z,2.04
2019-01-17T20:29:15.262Z,1.98
2019-01-17T20:31:45.081Z,2.03
2019-01-17T20:34:14.895Z,2.07
2019-01-17T20:36:45.669Z,2.08
2019-01-17T20:39:15.436Z,1.98
2019-01-17T20:41:45.278Z,2.17
2019-01-17T20:44:15.128Z,2.15
2019-01-17T20:46:44.903Z,2.25
2019-01-17T20:49:14.686Z,2.25
2019-01-17T20:51:44.517Z,2.31
2019-01-17T20:54:14.291Z,2.13
2019-01-17T20:56:44.121Z,2.26
2019-01-17T20:59:13.957Z,2.16
2019-01-17T21:01:53.812Z,2.18
2019-01-17T21:04:23.630Z,2.15
2019-01-17T21:06:53.428Z,2.08
2019-01-17T21:09:23.237Z,2.26
2019-01-17T21:11:53.034Z,2.20
2019-01-17T21:14:22.851Z,2.31
2019-01-17T21:16:52.950Z,2.30
2019-01-17T21:19:22.866Z,2.28
2019-01-17T21:21:52.689Z,2.24
2019-01-17T21:24:22.542Z,2.21
2019-01-17T21:26:52.460Z,2.08
2019-01-17T21:29:22.236Z,1.96
2019-01-17T21:31:52.023Z,1.88
2019-01-17T21:34:21.808Z,1.81
2019-01-17T21:36:51.599Z,1.68
2019-01-17T21:39:21.461Z,1.72
2019-01-17T21:41:51.539Z,1.92
2019-01-17T21:44:21.763Z,2.01
2019-01-17T21:46:51.576Z,2.16
2019-01-17T21:49:21.367Z,2.17
2019-01-17T21:51:51.245Z,2.29
2019-01-17T21:54:21.117Z,2.40
2019-01-17T21:56:51.034Z,2.38
2019-01-17T21:59:20.806Z,2.40
2019-01-17T22:01:50.618Z,2.58
2019-01-17T22:04:20.440Z,2.51
2019-01-17T22:06:50.234Z,2.50
2019-01-17T22:09:20.082Z,2.65
2019-01-17T22:11:49.872Z,2.64
2019-01-17T22:14:19.707Z,2.60
2019-01-17T22:16:49.545Z,2.58
2019-01-17T22:19:19.356Z,2.40
2019-01-17T22:21:49.147Z,2.10
2019-01-17T22:24:18.978Z,1.97
2019-01-17T22:26:48.784Z,1.88
2019-01-17T22:29:19.518Z,1.66
2019-01-17T22:31:49.694Z,1.57
2019-01-17T22:34:19.506Z,1.71
2019-01-17T22:36:49.338Z,1.86
2019-01-17T22:39:19.093Z,1.85
2019-01-17T22:41:48.925Z,1.87
2019-01-17T22:44:18.819Z,1.54
2019-01-17T22:46:48.968Z,1.56
2019-01-17T22:49:18.765Z,1.64
2019-01-17T22:51:48.616Z,1.64
2019-01-17T22:54:18.403Z,1.65
2019-01-17T22:56:48.201Z,1.80
2019-01-17T22:59:17.997Z,1.59
2019-01-17T23:01:47.772Z,1.51
2019-01-17T23:04:17.585Z,1.59
2019-01-17T23:06:47.381Z,1.69
2019-01-17T23:09:17.185Z,1.63
2019-01-17T23:11:47.337Z,1.64
2019-01-17T23:14:17.166Z,1.68
2019-01-17T23:16:46.983Z,1.45
2019-01-17T23:19:16.781Z,1.50
2019-01-17T23:21:46.608Z,1.49
2019-01-17T23:24:16.504Z,1.46
2019-01-17T23:26:46.299Z,1.34
2019-01-17T23:29:16.227Z,1.17
2019-01-17T23:31:45.983Z,1.55
2019-01-17T23:34:15.789Z,1.37
2019-01-17T23:36:48.806Z,1.25
2019-01-17T23:39:17.122Z,1.11
2019-01-17T23:41:46.905Z,1.34
2019-01-17T23:44:16.692Z,1.28
2019-01-17T23:46:46.487Z,1.20
2019-01-17T23:49:16.253Z,1.30
2019-01-17T23:51:46.049Z,1.41
2019-01-17T23:54:15.885Z,1.57
2019-01-17T23:56:45.647Z,1.53
2019-01-17T23:59:15.449Z,1.62
